Time;durP1;ratioP1;P1;durP2;ratioP2;P2;SDS_P1;SDS_P2;PMS_P1;PMS_P2;Temp;Humidity;BMP_temperature;BMP_pressure;BME280_temperature;BME280_humidity;BME280_pressure;Samples;Min_cycle;Max_cycle;Signal;HPM_P1;HPM_P2
2023/12/06 00:01:28;;;;;;;39.03;27.30;;;;;;;;;;5284108;28;20035;-78
2023/12/06 00:03:59;;;;;;;32.60;25.45;;;;;;;;;;5284191;28;20040;-77
2023/12/06 00:06:30;;;;;;;35.00;26.48;;;;;;;;;;5283237;28;20032;-78
2023/12/06 00:09:01;;;;;;;34.58;26.72;;;;;;;;;;5283861;28;20047;-78
2023/12/06 00:11:32;;;;;;;37.17;27.27;;;;;;;;;;5283676;28;20032;-78
2023/12/06 00:14:04;;;;;;;36.97;27.70;;;;;;;;;;5283320;28;20028;-78
2023/12/06 00:16:37;;;;;;;34.60;25.85;;;;;;;;;;5283829;28;20025;-77
2023/12/06 00:19:08;;;;;;;38.78;27.23;;;;;;;;;;5283011;28;20025;-78
2023/12/06 00:21:41;;;;;;;38.35;27.45;;;;;;;;;;5282857;28;20104;-78
2023/12/06 00:24:12;;;;;;;37.05;27.92;;;;;;;;;;5283493;28;20012;-77
2023/12/06 00:26:43;;;;;;;32.50;26.23;;;;;;;;;;5282995;28;20028;-78
2023/12/06 00:29:14;;;;;;;36.08;27.23;;;;;;;;;;5283621;28;20066;-77
2023/12/06 00:31:45;;;;;;;32.72;25.48;;;;;;;;;;5283223;28;20032;-78
2023/12/06 00:34:17;;;;;;;35.92;26.77;;;;;;;;;;5282498;28;20020;-79
2023/12/06 00:36:48;;;;;;;35.33;27.48;;;;;;;;;;5283598;28;20414;-78
2023/12/06 00:39:19;;;;;;;39.13;28.35;;;;;;;;;;5283416;28;20013;-78
2023/12/06 00:41:50;;;;;;;32.90;25.92;;;;;;;;;;5282692;28;20021;-78
2023/12/06 00:44:21;;;;;;;33.05;24.92;;;;;;;;;;5282850;28;20107;-78
2023/12/06 00:46:53;;;;;;;33.60;25.90;;;;;;;;;;5282990;28;20031;-78
2023/12/06 00:49:24;;;;;;;34.17;26.17;;;;;;;;;;5282629;28;20415;-78
2023/12/06 00:51:55;;;;;;;33.97;25.95;;;;;;;;;;5283434;28;20032;-78
2023/12/06 00:54:26;;;;;;;33.88;25.15;;;;;;;;;;5281803;28;20059;-78
2023/12/06 00:56:57;;;;;;;33.70;25.85;;;;;;;;;;5282943;28;20016;-78
2023/12/06 00:59:28;;;;;;;32.38;24.45;;;;;;;;;;5282839;28;20426;-78
2023/12/06 01:02:00;;;;;;;31.80;24.38;;;;;;;;;;5282338;28;20042;-79
2023/12/06 01:04:31;;;;;;;32.88;24.75;;;;;;;;;;5282963;28;20020;-78
2023/12/06 01:07:02;;;;;;;32.92;24.70;;;;;;;;;;5282725;28;20028;-78
2023/12/06 01:09:33;;;;;;;28.05;21.88;;;;;;;;;;5281873;28;20016;-78
2023/12/06 01:12:05;;;;;;;31.10;24.05;;;;;;;;;;5282467;28;20490;-79
2023/12/06 01:14:36;;;;;;;30.63;23.38;;;;;;;;;;5282734;28;20111;-78
2023/12/06 01:17:07;;;;;;;28.50;21.90;;;;;;;;;;5281752;28;20060;-78
2023/12/06 01:19:38;;;;;;;33.05;24.02;;;;;;;;;;5282543;28;20379;-79
2023/12/06 01:22:10;;;;;;;27.25;21.98;;;;;;;;;;5281642;28;20024;-77
2023/12/06 01:24:41;;;;;;;29.63;22.77;;;;;;;;;;5282193;28;20107;-78
2023/12/06 01:27:12;;;;;;;30.52;22.14;;;;;;;;;;5282524;28;20031;-78
2023/12/06 01:29:43;;;;;;;28.80;21.80;;;;;;;;;;5281659;28;20108;-78
2023/12/06 01:32:14;;;;;;;28.77;21.67;;;;;;;;;;5282149;28;20032;-78
2023/12/06 01:34:46;;;;;;;27.85;21.63;;;;;;;;;;5281369;28;20031;-78
2023/12/06 01:37:18;;;;;;;29.95;20.73;;;;;;;;;;5281112;28;20031;-78
2023/12/06 01:39:49;;;;;;;26.88;21.15;;;;;;;;;;5282230;28;20476;-78
2023/12/06 01:42:20;;;;;;;27.83;21.90;;;;;;;;;;5282144;28;20448;-78
2023/12/06 01:44:51;;;;;;;27.60;21.50;;;;;;;;;;5281456;28;20016;-78
2023/12/06 01:47:24;;;;;;;28.08;21.52;;;;;;;;;;5281737;28;20020;-78
2023/12/06 01:49:56;;;;;;;25.95;21.10;;;;;;;;;;5282439;28;20050;-78
2023/12/06 01:52:28;;;;;;;25.15;21.02;;;;;;;;;;5281441;28;20033;-78
2023/12/06 01:54:59;;;;;;;23.00;19.35;;;;;;;;;;5281709;28;20041;-78
2023/12/06 01:57:30;;;;;;;25.55;19.05;;;;;;;;;;5281047;28;20024;-79
2023/12/06 02:00:03;;;;;;;24.75;20.33;;;;;;;;;;5281813;28;20021;-78
2023/12/06 02:02:35;;;;;;;23.00;19.58;;;;;;;;;;5282027;28;20013;-78
2023/12/06 02:05:06;;;;;;;23.02;18.75;;;;;;;;;;5281044;28;20101;-78
2023/12/06 02:07:38;;;;;;;23.48;19.70;;;;;;;;;;5281856;28;20463;-78
2023/12/06 02:10:12;;;;;;;22.98;19.40;;;;;;;;;;5281726;28;20017;-78
2023/12/06 02:12:43;;;;;;;21.55;17.80;;;;;;;;;;5281134;28;20086;-78
2023/12/06 02:15:14;;;;;;;21.95;18.50;;;;;;;;;;5281980;28;20020;-78
2023/12/06 02:17:46;;;;;;;24.92;18.95;;;;;;;;;;5281889;28;20032;-78
2023/12/06 02:20:17;;;;;;;20.77;18.33;;;;;;;;;;5280935;28;20063;-78
2023/12/06 02:22:49;;;;;;;22.45;17.98;;;;;;;;;;5281597;28;20044;-78
2023/12/06 02:25:20;;;;;;;20.25;17.63;;;;;;;;;;5281581;28;20023;-78
2023/12/06 02:27:51;;;;;;;19.15;16.52;;;;;;;;;;5281296;28;20052;-78
2023/12/06 02:30:22;;;;;;;22.42;18.23;;;;;;;;;;5281193;28;20022;-78
2023/12/06 02:32:54;;;;;;;20.98;16.63;;;;;;;;;;5281191;28;20480;-78
2023/12/06 02:35:45;;;;;;;20.08;16.67;;;;;;;;;;5280924;28;20333;-78
2023/12/06 02:38:17;;;;;;;17.90;15.18;;;;;;;;;;5281467;28;20554;-78
2023/12/06 02:40:50;;;;;;;19.05;16.00;;;;;;;;;;5280558;28;20017;-78
2023/12/06 02:43:22;;;;;;;20.40;15.68;;;;;;;;;;5281004;28;20467;-78
2023/12/06 02:45:53;;;;;;;19.15;15.82;;;;;;;;;;5284487;28;20145;-78
2023/12/06 02:48:24;;;;;;;17.90;15.63;;;;;;;;;;5284167;28;20029;-78
2023/12/06 02:50:55;;;;;;;19.52;16.42;;;;;;;;;;5285686;28;20552;-78
2023/12/06 02:53:27;;;;;;;18.52;15.68;;;;;;;;;;5285014;28;20376;-78
2023/12/06 02:55:58;;;;;;;16.67;14.93;;;;;;;;;;5284577;28;20103;-78
2023/12/06 02:58:29;;;;;;;18.66;14.80;;;;;;;;;;5285133;28;20078;-78
2023/12/06 03:01:00;;;;;;;17.52;14.78;;;;;;;;;;5284736;28;20017;-78
2023/12/06 03:03:31;;;;;;;19.27;14.98;;;;;;;;;;5285243;28;20009;-78
2023/12/06 03:06:03;;;;;;;18.33;15.23;;;;;;;;;;5285235;28;20017;-78
2023/12/06 03:08:34;;;;;;;16.20;14.27;;;;;;;;;;5284284;28;20027;-78
2023/12/06 03:11:05;;;;;;;16.35;14.30;;;;;;;;;;5284938;28;20081;-78
2023/12/06 03:13:36;;;;;;;17.70;14.90;;;;;;;;;;5285109;28;20413;-78
2023/12/06 03:16:07;;;;;;;17.88;15.10;;;;;;;;;;5284350;28;20050;-78
2023/12/06 03:18:39;;;;;;;18.23;15.07;;;;;;;;;;5284959;28;20020;-78
2023/12/06 03:21:10;;;;;;;16.10;14.23;;;;;;;;;;5284660;28;20103;-78
2023/12/06 03:23:41;;;;;;;17.00;14.20;;;;;;;;;;5284256;28;20406;-78
2023/12/06 03:26:12;;;;;;;15.60;13.95;;;;;;;;;;5284838;28;20104;-78
2023/12/06 03:28:44;;;;;;;17.52;14.66;;;;;;;;;;5284111;28;20024;-78
2023/12/06 03:31:15;;;;;;;17.70;14.63;;;;;;;;;;5284515;28;20036;-78
2023/12/06 03:33:46;;;;;;;15.85;13.95;;;;;;;;;;5284623;28;20464;-78
2023/12/06 03:36:17;;;;;;;17.33;13.93;;;;;;;;;;5283959;28;20032;-78
2023/12/06 03:38:48;;;;;;;15.98;14.10;;;;;;;;;;5284639;28;20105;-78
2023/12/06 03:41:20;;;;;;;16.58;13.60;;;;;;;;;;5284492;28;20016;-78
2023/12/06 03:43:51;;;;;;;15.88;14.18;;;;;;;;;;5283614;28;20100;-78
2023/12/06 03:46:22;;;;;;;17.58;13.70;;;;;;;;;;5283927;28;20020;-78
2023/12/06 03:48:53;;;;;;;17.25;13.85;;;;;;;;;;5284860;28;20020;-78
2023/12/06 03:51:24;;;;;;;16.15;14.10;;;;;;;;;;5283169;28;20054;-78
2023/12/06 03:53:56;;;;;;;17.73;14.05;;;;;;;;;;5284330;28;20147;-78
2023/12/06 03:56:27;;;;;;;17.15;14.30;;;;;;;;;;5282984;28;20032;-78
2023/12/06 03:58:58;;;;;;;16.63;14.80;;;;;;;;;;5283512;28;20017;-77
2023/12/06 04:01:29;;;;;;;15.20;12.35;;;;;;;;;;5284195;28;20154;-77
2023/12/06 04:04:00;;;;;;;14.70;12.63;;;;;;;;;;5283314;28;20016;-77
2023/12/06 04:06:31;;;;;;;17.00;13.70;;;;;;;;;;5283891;28;20121;-78
2023/12/06 04:09:03;;;;;;;16.02;14.05;;;;;;;;;;5283826;28;20033;-76
2023/12/06 04:11:34;;;;;;;16.08;13.77;;;;;;;;;;5283178;28;20078;-78
2023/12/06 04:14:07;;;;;;;16.90;14.57;;;;;;;;;;5283845;28;20028;-76
2023/12/06 04:16:38;;;;;;;15.50;13.45;;;;;;;;;;5283758;28;20391;-76
2023/12/06 04:19:09;;;;;;;17.35;15.05;;;;;;;;;;5283075;28;20017;-78
2023/12/06 04:21:40;;;;;;;15.55;13.23;;;;;;;;;;5283782;28;20016;-77
2023/12/06 04:24:11;;;;;;;15.43;13.00;;;;;;;;;;5283751;28;20086;-77
2023/12/06 04:26:43;;;;;;;16.27;14.27;;;;;;;;;;5283048;28;20024;-77
2023/12/06 04:29:14;;;;;;;19.77;15.23;;;;;;;;;;5283514;28;20067;-77
2023/12/06 04:31:45;;;;;;;18.14;14.94;;;;;;;;;;5283455;28;20045;-77
2023/12/06 04:34:18;;;;;;;16.88;14.40;;;;;;;;;;5282723;28;20123;-77
2023/12/06 04:36:49;;;;;;;16.75;14.77;;;;;;;;;;5283459;28;20099;-77
2023/12/06 04:39:20;;;;;;;18.23;14.20;;;;;;;;;;5282520;28;20107;-77
2023/12/06 04:41:51;;;;;;;17.50;14.88;;;;;;;;;;5283361;28;20033;-77
2023/12/06 04:44:22;;;;;;;18.10;15.02;;;;;;;;;;5282730;28;20086;-76
2023/12/06 04:46:54;;;;;;;16.05;14.35;;;;;;;;;;5283126;28;20033;-75
2023/12/06 04:49:25;;;;;;;15.90;14.26;;;;;;;;;;5282948;28;20074;-76
2023/12/06 04:51:56;;;;;;;18.65;15.32;;;;;;;;;;5283206;28;20031;-76
2023/12/06 04:54:27;;;;;;;19.27;14.65;;;;;;;;;;5281805;28;20071;-76
2023/12/06 04:56:59;;;;;;;16.98;13.88;;;;;;;;;;5282897;28;20021;-77
2023/12/06 04:59:30;;;;;;;17.83;14.05;;;;;;;;;;5282869;28;20017;-76
2023/12/06 05:02:01;;;;;;;20.42;14.70;;;;;;;;;;5282217;28;20028;-77
2023/12/06 05:04:32;;;;;;;22.65;14.93;;;;;;;;;;5282703;28;20103;-77
2023/12/06 05:07:03;;;;;;;17.38;15.07;;;;;;;;;;5282460;28;20491;-76
2023/12/06 05:09:35;;;;;;;17.10;15.30;;;;;;;;;;5281713;28;20444;-77
2023/12/06 05:12:06;;;;;;;15.50;13.73;;;;;;;;;;5282584;28;20113;-77
2023/12/06 05:14:37;;;;;;;18.50;14.95;;;;;;;;;;5282004;28;20013;-77
2023/12/06 05:17:08;;;;;;;21.27;14.90;;;;;;;;;;5282486;28;20031;-77
2023/12/06 05:19:40;;;;;;;18.88;15.16;;;;;;;;;;5282710;28;20021;-77
2023/12/06 05:22:11;;;;;;;16.95;14.85;;;;;;;;;;5282051;28;20021;-76
2023/12/06 05:24:42;;;;;;;18.83;16.02;;;;;;;;;;5282817;28;20112;-77
2023/12/06 05:27:13;;;;;;;20.42;15.82;;;;;;;;;;5282659;28;20368;-77
2023/12/06 05:29:45;;;;;;;17.42;15.40;;;;;;;;;;5281436;28;20024;-77
2023/12/06 05:32:16;;;;;;;20.20;15.15;;;;;;;;;;5282132;28;20832;-77
2023/12/06 05:34:47;;;;;;;18.80;15.88;;;;;;;;;;5282165;28;20015;-77
2023/12/06 05:37:19;;;;;;;19.04;15.42;;;;;;;;;;5281471;28;20379;-77
2023/12/06 05:39:50;;;;;;;18.27;15.90;;;;;;;;;;5282410;28;20399;-77
2023/12/06 05:42:21;;;;;;;19.10;15.85;;;;;;;;;;5281148;28;20058;-76
2023/12/06 05:44:52;;;;;;;17.48;15.55;;;;;;;;;;5282319;28;20030;-76
2023/12/06 05:47:25;;;;;;;19.80;16.17;;;;;;;;;;5281987;28;20099;-77
2023/12/06 05:49:56;;;;;;;19.20;15.60;;;;;;;;;;5281599;28;20024;-79
2023/12/06 05:52:27;;;;;;;20.95;16.13;;;;;;;;;;5281911;28;20039;-77
2023/12/06 05:54:59;;;;;;;19.88;15.93;;;;;;;;;;5281708;28;20101;-76
2023/12/06 05:57:32;;;;;;;18.17;15.65;;;;;;;;;;5281173;28;20024;-76
2023/12/06 06:00:12;;;;;;;18.52;15.30;;;;;;;;;;5281827;28;20009;-76
2023/12/06 06:02:43;;;;;;;18.52;16.38;;;;;;;;;;5281850;28;20008;-76
2023/12/06 06:05:16;;;;;;;17.52;15.10;;;;;;;;;;5280944;28;20091;-77
2023/12/06 06:07:47;;;;;;;17.95;14.95;;;;;;;;;;5281651;28;20009;-77
2023/12/06 06:10:19;;;;;;;18.15;15.23;;;;;;;;;;5281961;28;20025;-77
2023/12/06 06:12:50;;;;;;;20.10;15.40;;;;;;;;;;5281217;28;20082;-77
2023/12/06 06:15:21;;;;;;;21.73;14.90;;;;;;;;;;5281329;28;20054;-77
2023/12/06 06:17:52;;;;;;;17.45;14.43;;;;;;;;;;5281362;28;20021;-77
2023/12/06 06:20:23;;;;;;;17.60;15.02;;;;;;;;;;5285951;28;20383;-77
2023/12/06 06:22:54;;;;;;;18.14;14.34;;;;;;;;;;5289115;28;20120;-77
2023/12/06 06:25:26;;;;;;;18.75;14.60;;;;;;;;;;5287608;28;20017;-76
2023/12/06 06:27:57;;;;;;;19.55;14.07;;;;;;;;;;5288860;28;20104;-76
2023/12/06 06:30:28;;;;;;;18.65;14.23;;;;;;;;;;5288389;28;20020;-76
2023/12/06 06:33:00;;;;;;;16.92;13.90;;;;;;;;;;5287582;28;20487;-77
2023/12/06 06:35:31;;;;;;;17.33;13.10;;;;;;;;;;5288593;28;20424;-77
2023/12/06 06:38:02;;;;;;;13.88;12.45;;;;;;;;;;5288618;28;20093;-77
2023/12/06 06:40:33;;;;;;;13.50;11.88;;;;;;;;;;5287766;28;20020;-76
2023/12/06 06:43:06;;;;;;;19.40;12.98;;;;;;;;;;5288216;28;20016;-77
2023/12/06 06:45:37;;;;;;;18.40;13.23;;;;;;;;;;5288031;28;20497;-77
2023/12/06 06:48:09;;;;;;;16.88;13.15;;;;;;;;;;5288323;28;20028;-77
2023/12/06 06:50:40;;;;;;;14.60;11.80;;;;;;;;;;5288313;28;20487;-77
2023/12/06 06:53:11;;;;;;;17.52;12.43;;;;;;;;;;5287637;28;20040;-77
2023/12/06 06:55:43;;;;;;;15.25;12.18;;;;;;;;;;5288833;28;20035;-78
2023/12/06 06:58:14;;;;;;;13.65;11.82;;;;;;;;;;5288274;28;20028;-78
2023/12/06 07:00:45;;;;;;;13.52;12.13;;;;;;;;;;5287919;28;20447;-79
2023/12/06 07:03:17;;;;;;;14.40;12.35;;;;;;;;;;5288278;28;20089;-78
2023/12/06 07:05:48;;;;;;;16.23;12.27;;;;;;;;;;5288660;28;20028;-77
2023/12/06 07:08:19;;;;;;;14.80;11.85;;;;;;;;;;5287481;28;20043;-78
2023/12/06 07:10:50;;;;;;;15.90;12.38;;;;;;;;;;5288600;28;20048;-77
2023/12/06 07:13:22;;;;;;;16.42;13.20;;;;;;;;;;5287971;28;20023;-77
2023/12/06 07:15:53;;;;;;;16.58;13.13;;;;;;;;;;5287675;28;20460;-77
2023/12/06 07:18:25;;;;;;;14.15;12.25;;;;;;;;;;5287591;28;20357;-77
2023/12/06 07:20:57;;;;;;;17.50;12.98;;;;;;;;;;5287649;28;20019;-76
2023/12/06 07:23:28;;;;;;;16.42;12.75;;;;;;;;;;5287874;28;20020;-76
2023/12/06 07:25:59;;;;;;;15.13;12.85;;;;;;;;;;5288059;28;20021;-77
2023/12/06 07:28:30;;;;;;;15.00;11.82;;;;;;;;;;5287209;28;20025;-77
2023/12/06 07:31:02;;;;;;;16.00;12.18;;;;;;;;;;5286421;28;20024;-77
2023/12/06 07:33:35;;;;;;;17.15;13.35;;;;;;;;;;5284761;28;20021;-78
2023/12/06 07:36:06;;;;;;;14.20;12.20;;;;;;;;;;5283711;28;20042;-77
2023/12/06 07:38:39;;;;;;;16.80;12.38;;;;;;;;;;5284507;28;20016;-79
2023/12/06 07:41:10;;;;;;;12.48;11.15;;;;;;;;;;5284252;28;20032;-79
2023/12/06 07:43:41;;;;;;;16.20;12.23;;;;;;;;;;5283332;28;20013;-78
2023/12/06 07:46:13;;;;;;;14.80;11.68;;;;;;;;;;5284410;28;20016;-79
2023/12/06 07:48:44;;;;;;;15.27;11.88;;;;;;;;;;5284508;28;20013;-79
2023/12/06 07:51:15;;;;;;;15.75;12.25;;;;;;;;;;5283549;28;20040;-78
2023/12/06 07:53:46;;;;;;;17.05;13.57;;;;;;;;;;5284044;28;20064;-78
2023/12/06 07:56:17;;;;;;;15.90;12.98;;;;;;;;;;5283343;28;20028;-79
2023/12/06 07:58:51;;;;;;;15.20;13.07;;;;;;;;;;5284083;28;20022;-78
2023/12/06 08:01:23;;;;;;;21.10;13.38;;;;;;;;;;5283612;28;20020;-79
2023/12/06 08:03:54;;;;;;;20.23;13.35;;;;;;;;;;5283678;28;20017;-78
2023/12/06 08:06:26;;;;;;;19.38;14.20;;;;;;;;;;5283667;28;20036;-78
2023/12/06 08:08:57;;;;;;;17.20;14.27;;;;;;;;;;5284219;28;20467;-79
2023/12/06 08:11:29;;;;;;;18.65;14.32;;;;;;;;;;5283135;28;20070;-79
2023/12/06 08:14:00;;;;;;;15.80;13.30;;;;;;;;;;5283904;28;20029;-78
2023/12/06 08:16:31;;;;;;;20.20;13.60;;;;;;;;;;5283608;28;20019;-77
2023/12/06 08:19:03;;;;;;;16.74;13.72;;;;;;;;;;5282879;28;20540;-78
2023/12/06 08:21:34;;;;;;;14.98;12.40;;;;;;;;;;5283900;28;20367;-78
2023/12/06 08:24:07;;;;;;;16.98;12.73;;;;;;;;;;5283092;28;20410;-78
2023/12/06 08:26:38;;;;;;;13.45;11.98;;;;;;;;;;5283728;28;20020;-80
2023/12/06 08:29:09;;;;;;;15.15;11.40;;;;;;;;;;5283597;28;20072;-79
2023/12/06 08:31:41;;;;;;;18.60;12.60;;;;;;;;;;5282565;28;20387;-80
2023/12/06 08:34:12;;;;;;;18.15;11.75;;;;;;;;;;5283770;28;20368;-80
2023/12/06 08:36:43;;;;;;;16.52;11.32;;;;;;;;;;5284021;28;20063;-81
2023/12/06 08:39:15;;;;;;;14.30;10.23;;;;;;;;;;5283026;28;20352;-79
2023/12/06 08:41:46;;;;;;;15.38;10.98;;;;;;;;;;5282949;28;20030;-78
2023/12/06 08:44:17;;;;;;;15.10;10.25;;;;;;;;;;5283021;28;20467;-79
2023/12/06 08:46:49;;;;;;;11.52;10.32;;;;;;;;;;5282617;28;20016;-78
2023/12/06 08:49:20;;;;;;;10.60;9.20;;;;;;;;;;5283092;28;20012;-78
2023/12/06 08:51:51;;;;;;;12.75;10.13;;;;;;;;;;5283117;28;20036;-79
2023/12/06 08:54:23;;;;;;;10.98;9.20;;;;;;;;;;5281594;28;20058;-78
2023/12/06 08:56:54;;;;;;;15.38;10.93;;;;;;;;;;5283476;28;20349;-78
2023/12/06 08:59:25;;;;;;;15.15;11.02;;;;;;;;;;5281665;28;20059;-79
2023/12/06 09:01:57;;;;;;;15.13;11.95;;;;;;;;;;5282915;28;20539;-79
2023/12/06 09:04:28;;;;;;;14.55;10.40;;;;;;;;;;5282795;28;20017;-78
2023/12/06 09:06:59;;;;;;;14.05;10.80;;;;;;;;;;5281903;28;20029;-79
2023/12/06 09:09:30;;;;;;;13.35;11.07;;;;;;;;;;5282722;28;20021;-77
2023/12/06 09:12:02;;;;;;;13.88;10.77;;;;;;;;;;5282382;28;20039;-78
2023/12/06 09:14:33;;;;;;;14.93;10.30;;;;;;;;;;5281809;28;20100;-79
2023/12/06 09:17:04;;;;;;;14.90;10.05;;;;;;;;;;5282624;28;20033;-79
2023/12/06 09:19:35;;;;;;;13.10;10.18;;;;;;;;;;5282240;28;20013;-79
2023/12/06 09:22:07;;;;;;;12.15;10.65;;;;;;;;;;5281583;28;20024;-80
2023/12/06 09:24:38;;;;;;;12.65;10.13;;;;;;;;;;5282444;28;20108;-78
2023/12/06 09:27:09;;;;;;;14.88;9.98;;;;;;;;;;5282356;28;20036;-78
2023/12/06 09:29:41;;;;;;;12.35;9.48;;;;;;;;;;5281433;28;20081;-79
2023/12/06 09:32:12;;;;;;;12.23;10.02;;;;;;;;;;5282043;28;20016;-79
2023/12/06 09:34:43;;;;;;;13.35;9.90;;;;;;;;;;5281407;28;20012;-81
2023/12/06 09:37:15;;;;;;;17.55;9.73;;;;;;;;;;5282272;28;20107;-80
2023/12/06 09:39:46;;;;;;;10.48;9.23;;;;;;;;;;5282094;28;20088;-80
2023/12/06 09:42:17;;;;;;;14.00;9.55;;;;;;;;;;5281054;28;20025;-80
2023/12/06 09:44:49;;;;;;;13.77;10.05;;;;;;;;;;5282024;28;20046;-80
2023/12/06 09:47:22;;;;;;;15.88;10.15;;;;;;;;;;5281972;28;20065;-79
2023/12/06 09:49:53;;;;;;;15.82;10.60;;;;;;;;;;5281805;28;20023;-79
2023/12/06 09:52:25;;;;;;;12.35;9.90;;;;;;;;;;5281386;28;20024;-79
2023/12/06 09:54:57;;;;;;;12.55;10.15;;;;;;;;;;5280813;28;20052;-79
2023/12/06 09:57:28;;;;;;;11.73;9.05;;;;;;;;;;5281047;28;20553;-79
2023/12/06 09:59:59;;;;;;;12.68;9.18;;;;;;;;;;5281847;28;20054;-79
2023/12/06 10:02:45;;;;;;;13.43;9.00;;;;;;;;;;5281234;28;20029;-80
2023/12/06 10:05:17;;;;;;;11.68;8.60;;;;;;;;;;5281429;28;20031;-79
2023/12/06 10:07:48;;;;;;;10.98;7.90;;;;;;;;;;5281872;28;20399;-80
2023/12/06 10:10:20;;;;;;;11.63;7.22;;;;;;;;;;5280905;28;20024;-80
2023/12/06 10:12:58;;;;;;;10.93;7.72;;;;;;;;;;5281880;28;20382;-80
2023/12/06 10:15:35;;;;;;;9.73;7.45;;;;;;;;;;5281434;28;20017;-79
2023/12/06 10:18:07;;;;;;;10.68;7.38;;;;;;;;;;5276955;28;20047;-80
2023/12/06 10:20:38;;;;;;;9.98;7.00;;;;;;;;;;5267635;28;20013;-79
2023/12/06 10:23:11;;;;;;;10.57;6.85;;;;;;;;;;5258554;28;20028;-80
2023/12/06 10:25:43;;;;;;;13.35;7.50;;;;;;;;;;5278455;28;20024;-80
2023/12/06 10:28:14;;;;;;;10.02;6.68;;;;;;;;;;5280085;28;20024;-79
2023/12/06 10:30:45;;;;;;;9.38;7.13;;;;;;;;;;5279722;28;20384;-78
2023/12/06 10:33:18;;;;;;;12.10;6.97;;;;;;;;;;5280797;28;20020;-80
2023/12/06 10:35:49;;;;;;;9.82;6.82;;;;;;;;;;5280163;28;20047;-80
2023/12/06 10:38:21;;;;;;;10.15;6.93;;;;;;;;;;5279584;28;20052;-80
2023/12/06 10:40:52;;;;;;;9.43;7.18;;;;;;;;;;5280724;28;20017;-78
2023/12/06 10:43:23;;;;;;;12.93;7.00;;;;;;;;;;5280367;28;20491;-80
2023/12/06 10:45:55;;;;;;;8.80;6.15;;;;;;;;;;5280402;28;20025;-78
2023/12/06 10:48:28;;;;;;;8.85;6.25;;;;;;;;;;5280189;28;20036;-78
2023/12/06 10:51:00;;;;;;;9.50;6.88;;;;;;;;;;5280402;28;20028;-79
2023/12/06 10:53:32;;;;;;;10.05;6.95;;;;;;;;;;5279688;28;20495;-83
2023/12/06 10:56:03;;;;;;;12.07;7.40;;;;;;;;;;5280800;28;20012;-80
2023/12/06 10:58:35;;;;;;;10.00;7.05;;;;;;;;;;5280567;28;20021;-79
2023/12/06 11:01:08;;;;;;;11.98;7.50;;;;;;;;;;5279619;28;20023;-79
2023/12/06 11:03:40;;;;;;;10.40;7.32;;;;;;;;;;5280117;28;20013;-80
2023/12/06 11:06:30;;;;;;;12.80;8.25;;;;;;;;;;5281228;28;20047;-82
2023/12/06 11:09:15;;;;;;;11.68;7.32;;;;;;;;;;5284367;28;20020;-82
2023/12/06 11:11:56;;;;;;;10.25;7.25;;;;;;;;;;5284342;28;20467;-82
2023/12/06 11:14:46;;;;;;;11.80;8.13;;;;;;;;;;5283702;28;20024;-81
2023/12/06 11:17:32;;;;;;;15.23;8.98;;;;;;;;;;5284537;28;20032;-81
2023/12/06 11:20:04;;;;;;;14.07;8.95;;;;;;;;;;5283090;28;20016;-80
2023/12/06 11:22:37;;;;;;;12.55;7.38;;;;;;;;;;5283833;28;20031;-81
2023/12/06 11:25:09;;;;;;;8.32;6.40;;;;;;;;;;5283551;28;20499;-80
2023/12/06 11:27:41;;;;;;;10.38;5.95;;;;;;;;;;5282945;28;20017;-80
2023/12/06 11:30:16;;;;;;;6.75;5.53;;;;;;;;;;5284227;28;20052;-81
2023/12/06 11:32:52;;;;;;;8.00;4.68;;;;;;;;;;5284313;28;20071;-79
2023/12/06 11:35:24;;;;;;;8.13;4.90;;;;;;;;;;5283179;28;20023;-78
2023/12/06 11:37:55;;;;;;;6.85;4.93;;;;;;;;;;5283589;28;20028;-78
2023/12/06 11:40:27;;;;;;;6.93;4.43;;;;;;;;;;5284062;28;20024;-81
2023/12/06 11:43:00;;;;;;;7.82;4.50;;;;;;;;;;5283744;28;20024;-81
2023/12/06 11:45:32;;;;;;;6.25;4.50;;;;;;;;;;5284323;28;20028;-82
2023/12/06 11:48:05;;;;;;;7.07;4.70;;;;;;;;;;5283657;28;20028;-83
2023/12/06 11:50:46;;;;;;;6.93;4.45;;;;;;;;;;5284477;28;20016;-82
2023/12/06 11:53:19;;;;;;;12.35;4.55;;;;;;;;;;5283897;28;20048;-84
2023/12/06 11:55:50;;;;;;;8.07;4.32;;;;;;;;;;5283651;28;20574;-83
2023/12/06 11:58:22;;;;;;;14.05;4.65;;;;;;;;;;5284265;28;20020;-83
2023/12/06 12:00:53;;;;;;;7.70;4.88;;;;;;;;;;5284818;28;20032;-78
2023/12/06 12:03:25;;;;;;;7.15;4.07;;;;;;;;;;5282724;28;20021;-78
2023/12/06 12:05:57;;;;;;;5.82;3.60;;;;;;;;;;5283893;28;20062;-78
2023/12/06 12:08:29;;;;;;;6.45;4.38;;;;;;;;;;5283914;28;20020;-79
2023/12/06 12:11:00;;;;;;;6.78;4.13;;;;;;;;;;5283094;28;20452;-81
2023/12/06 12:13:35;;;;;;;9.25;4.63;;;;;;;;;;5283873;28;20479;-81
2023/12/06 12:16:07;;;;;;;6.40;4.38;;;;;;;;;;5283822;28;20060;-81
2023/12/06 12:18:40;;;;;;;9.18;4.57;;;;;;;;;;5282499;28;20560;-80
2023/12/06 12:21:19;;;;;;;7.65;4.07;;;;;;;;;;5284146;28;20528;-81
2023/12/06 12:23:50;;;;;;;7.57;4.40;;;;;;;;;;5283259;28;20025;-81
2023/12/06 12:26:22;;;;;;;7.55;4.55;;;;;;;;;;5283059;28;20060;-82
2023/12/06 12:28:53;;;;;;;7.70;4.53;;;;;;;;;;5282040;28;20040;-81
2023/12/06 12:31:26;;;;;;;8.60;4.45;;;;;;;;;;5280552;28;20043;-81
2023/12/06 12:33:58;;;;;;;8.27;4.50;;;;;;;;;;5281832;28;20045;-82
2023/12/06 12:36:29;;;;;;;6.57;3.90;;;;;;;;;;5283546;28;20486;-82
2023/12/06 12:39:01;;;;;;;5.78;3.63;;;;;;;;;;5281555;28;20016;-82
2023/12/06 12:41:32;;;;;;;13.52;5.07;;;;;;;;;;5282132;28;20035;-82
2023/12/06 12:44:03;;;;;;;5.90;4.13;;;;;;;;;;5283488;28;20367;-81
2023/12/06 12:46:36;;;;;;;6.53;4.28;;;;;;;;;;5282749;28;20035;-82
2023/12/06 12:49:08;;;;;;;7.43;4.57;;;;;;;;;;5283295;28;20170;-82
2023/12/06 12:51:40;;;;;;;8.27;4.53;;;;;;;;;;5282493;28;20470;-82
2023/12/06 12:54:15;;;;;;;8.05;3.88;;;;;;;;;;5283061;28;20138;-81
2023/12/06 12:56:47;;;;;;;8.63;4.60;;;;;;;;;;5283231;28;20025;-81
2023/12/06 12:59:18;;;;;;;6.68;3.45;;;;;;;;;;5282343;28;20036;-82
2023/12/06 13:01:50;;;;;;;7.64;4.10;;;;;;;;;;5282677;28;20478;-81
2023/12/06 13:04:21;;;;;;;5.68;3.80;;;;;;;;;;5282509;28;20418;-81
2023/12/06 13:06:53;;;;;;;3.78;3.25;;;;;;;;;;5282145;28;20013;-81
2023/12/06 13:09:26;;;;;;;8.75;4.07;;;;;;;;;;5282443;28;20422;-82
2023/12/06 13:11:57;;;;;;;5.20;4.70;;;;;;;;;;5282627;28;20025;-81
2023/12/06 13:14:28;;;;;;;6.55;4.00;;;;;;;;;;5281995;28;20024;-82
2023/12/06 13:17:01;;;;;;;5.72;4.05;;;;;;;;;;5282678;28;20027;-81
2023/12/06 13:19:33;;;;;;;6.35;3.63;;;;;;;;;;5281885;28;20040;-82
2023/12/06 13:22:04;;;;;;;7.53;4.13;;;;;;;;;;5282684;28;20040;-81
2023/12/06 13:24:35;;;;;;;5.10;3.78;;;;;;;;;;5282454;28;20083;-82
2023/12/06 13:27:06;;;;;;;7.75;3.55;;;;;;;;;;5281741;28;20070;-81
2023/12/06 13:29:38;;;;;;;6.57;3.50;;;;;;;;;;5282199;28;20359;-81
2023/12/06 13:32:13;;;;;;;6.22;3.90;;;;;;;;;;5282364;28;20445;-81
2023/12/06 13:34:47;;;;;;;6.07;3.40;;;;;;;;;;5281740;28;20035;-81
2023/12/06 13:37:18;;;;;;;4.68;3.17;;;;;;;;;;5282497;28;20088;-82
2023/12/06 13:39:49;;;;;;;5.20;3.33;;;;;;;;;;5282001;28;20043;-82
2023/12/06 13:42:21;;;;;;;5.28;3.53;;;;;;;;;;5281423;28;20032;-81
2023/12/06 13:44:52;;;;;;;5.93;2.90;;;;;;;;;;5282522;28;20367;-81
2023/12/06 13:47:24;;;;;;;5.57;3.03;;;;;;;;;;5281869;28;20032;-81
2023/12/06 13:49:55;;;;;;;6.38;3.22;;;;;;;;;;5281839;28;20013;-82
2023/12/06 13:52:26;;;;;;;7.57;3.25;;;;;;;;;;5281534;28;20085;-80
2023/12/06 13:54:57;;;;;;;4.18;2.33;;;;;;;;;;5281223;28;20072;-81
2023/12/06 13:57:30;;;;;;;6.82;2.90;;;;;;;;;;5282381;28;20517;-82
2023/12/06 14:00:05;;;;;;;3.15;1.48;;;;;;;;;;5281965;28;20023;-82
2023/12/06 14:02:36;;;;;;;2.30;1.02;;;;;;;;;;5281228;28;20055;-82
2023/12/06 14:05:08;;;;;;;3.70;0.70;;;;;;;;;;5281980;28;20056;-82
2023/12/06 14:07:39;;;;;;;2.90;0.85;;;;;;;;;;5282321;28;20356;-82
2023/12/06 14:10:11;;;;;;;2.10;0.70;;;;;;;;;;5281231;28;20021;-82
2023/12/06 14:12:42;;;;;;;2.00;0.57;;;;;;;;;;5281755;28;20024;-81
2023/12/06 14:15:13;;;;;;;1.52;0.52;;;;;;;;;;5281694;28;20475;-81
2023/12/06 14:17:44;;;;;;;3.45;0.70;;;;;;;;;;5281111;28;20035;-81
2023/12/06 14:20:16;;;;;;;2.88;0.80;;;;;;;;;;5281906;28;20387;-81
2023/12/06 14:22:47;;;;;;;1.50;0.50;;;;;;;;;;5281263;28;20417;-81
2023/12/06 14:25:18;;;;;;;2.40;0.60;;;;;;;;;;5282300;28;20099;-80
2023/12/06 14:27:49;;;;;;;1.65;0.60;;;;;;;;;;5282351;28;20387;-80
2023/12/06 14:30:20;;;;;;;3.75;0.70;;;;;;;;;;5281493;28;20460;-80
2023/12/06 14:32:51;;;;;;;3.65;0.85;;;;;;;;;;5282039;28;20190;-80
2023/12/06 14:35:23;;;;;;;1.52;0.65;;;;;;;;;;5281081;28;20017;-80
2023/12/06 14:37:54;;;;;;;1.67;0.65;;;;;;;;;;5280925;28;20387;-80
2023/12/06 14:40:26;;;;;;;2.58;0.70;;;;;;;;;;5281540;28;20155;-80
2023/12/06 14:42:58;;;;;;;2.20;0.90;;;;;;;;;;5285619;28;20379;-80
2023/12/06 14:45:29;;;;;;;1.55;0.63;;;;;;;;;;5284808;28;20020;-80
2023/12/06 14:48:00;;;;;;;1.90;0.88;;;;;;;;;;5285827;28;20154;-80
2023/12/06 14:50:31;;;;;;;1.70;0.70;;;;;;;;;;5285766;28;20020;-80